createdAt,value
2019-01-11T00:00:46.833Z,-3.8
2019-01-11T00:01:46.563Z,-3.79
2019-01-11T00:02:54.299Z,-3.71
2019-01-11T00:03:47.670Z,-3.72
2019-01-11T00:04:46.794Z,-3.76
2019-01-11T00:05:46.728Z,-3.86
2019-01-11T00:06:46.704Z,-3.75
2019-01-11T00:07:46.692Z,-3.79
2019-01-11T00:08:46.666Z,-3.83
2019-01-11T00:09:46.647Z,-3.87
2019-01-11T00:10:46.375Z,-3.82
2019-01-11T00:11:46.602Z,-3.8
2019-01-11T00:12:46.580Z,-3.86
2019-01-11T00:13:46.311Z,-3.8
2019-01-11T00:14:46.532Z,-3.8
2019-01-11T00:15:46.535Z,-3.83
2019-01-11T00:16:46.243Z,-3.83
2019-01-11T00:17:46.470Z,-3.86
2019-01-11T00:18:46.205Z,-3.82
2019-01-11T00:19:46.431Z,-3.8
2019-01-11T00:20:46.413Z,-3.8
2019-01-11T00:21:46.392Z,-3.82
2019-01-11T00:22:46.366Z,-3.79
2019-01-11T00:23:46.347Z,-3.82
2019-01-11T00:24:46.326Z,-3.83
2019-01-11T00:25:46.302Z,-3.87
2019-01-11T00:26:46.280Z,-3.79
2019-01-11T00:27:46.361Z,-3.79
2019-01-11T00:28:46.683Z,-3.82
2019-01-11T00:29:46.219Z,-3.82
2019-01-11T00:30:46.195Z,-3.82
2019-01-11T00:31:46.172Z,-3.77
2019-01-11T00:32:46.151Z,-3.83
2019-01-11T00:33:46.134Z,-3.79
2019-01-11T00:34:46.108Z,-3.8
2019-01-11T00:35:46.094Z,-3.82
2019-01-11T00:36:45.816Z,-3.86
2019-01-11T00:37:46.049Z,-3.82
2019-01-11T00:38:46.021Z,-3.8
2019-01-11T00:39:45.757Z,-3.86
2019-01-11T00:40:45.980Z,-3.83
2019-01-11T00:41:45.713Z,-3.8
2019-01-11T00:42:45.691Z,-3.8
2019-01-11T00:43:45.917Z,-3.88
2019-01-11T00:44:45.906Z,-3.9
2019-01-11T00:45:45.879Z,-3.87
2019-01-11T00:46:45.858Z,-3.88
2019-01-11T00:47:45.839Z,-3.9
2019-01-11T00:48:45.816Z,-3.9
2019-01-11T00:49:45.794Z,-3.88
2019-01-11T00:50:45.772Z,-3.98
2019-01-11T00:51:45.751Z,-3.9
2019-01-11T00:52:45.730Z,-3.9
2019-01-11T00:53:45.706Z,-3.94
2019-01-11T00:54:45.680Z,-3.93
2019-01-11T00:55:45.660Z,-3.94
2019-01-11T00:56:45.640Z,-3.97
2019-01-11T00:57:45.628Z,-3.96
2019-01-11T00:58:45.596Z,-3.91
2019-01-11T00:59:45.627Z,-4.01
2019-01-11T01:00:45.555Z,-3.96
2019-01-11T01:01:45.539Z,-4.01
2019-01-11T01:02:45.517Z,-3.97
2019-01-11T01:03:45.490Z,-3.91
2019-01-11T01:04:45.472Z,-3.91
2019-01-11T01:05:45.456Z,-3.91
2019-01-11T01:06:45.182Z,-3.9
2019-01-11T01:07:45.161Z,-3.97
2019-01-11T01:08:45.392Z,-3.93
2019-01-11T01:09:45.364Z,-3.94
2019-01-11T01:10:45.340Z,-3.93
2019-01-11T01:11:45.073Z,-3.9
2019-01-11T01:12:45.303Z,-3.9
2019-01-11T01:13:45.072Z,-3.91
2019-01-11T01:14:45.258Z,-3.94
2019-01-11T01:15:45.240Z,-3.96
2019-01-11T01:16:44.961Z,-3.88
2019-01-11T01:17:44.943Z,-3.97
2019-01-11T01:18:45.168Z,-3.88
2019-01-11T01:19:44.895Z,-3.96
2019-01-11T01:20:45.132Z,-3.88
2019-01-11T01:21:45.110Z,-3.88
2019-01-11T01:22:45.086Z,-3.9
2019-01-11T01:23:44.814Z,-3.88
2019-01-11T01:24:45.048Z,-3.91
2019-01-11T01:25:45.020Z,-3.91
2019-01-11T01:26:44.999Z,-3.91
2019-01-11T01:27:44.980Z,-3.9
2019-01-11T01:28:44.956Z,-3.86
2019-01-11T01:29:44.935Z,-3.88
2019-01-11T01:30:44.913Z,-3.88
2019-01-11T01:31:44.889Z,-3.88
2019-01-11T01:32:44.890Z,-3.88
2019-01-11T01:33:44.850Z,-3.91
2019-01-11T01:34:44.831Z,-3.86
2019-01-11T01:35:44.850Z,-3.83
2019-01-11T01:36:44.788Z,-3.83
2019-01-11T01:37:44.775Z,-3.88
2019-01-11T01:38:44.741Z,-3.9
2019-01-11T01:39:44.477Z,-3.88
2019-01-11T01:40:44.698Z,-3.83
2019-01-11T01:41:44.678Z,-3.86
2019-01-11T01:42:44.658Z,-3.8
2019-01-11T01:43:44.630Z,-3.82
2019-01-11T01:44:44.618Z,-3.86
2019-01-11T01:45:44.341Z,-3.83
2019-01-11T01:46:44.575Z,-3.86
2019-01-11T01:47:44.550Z,-3.86
2019-01-11T01:48:45.327Z,-3.86
2019-01-11T01:49:44.510Z,-3.83
2019-01-11T01:50:44.486Z,-3.79
2019-01-11T01:51:44.463Z,-3.8
2019-01-11T01:52:44.447Z,-3.86
2019-01-11T01:53:44.422Z,-3.86
2019-01-11T01:54:44.405Z,-3.82
2019-01-11T01:55:44.137Z,-3.82
2019-01-11T01:56:44.363Z,-3.83
2019-01-11T01:57:44.338Z,-3.86
2019-01-11T01:58:44.320Z,-3.83
2019-01-11T01:59:44.302Z,-3.8
2019-01-11T02:00:44.288Z,-3.83
2019-01-11T02:01:44.251Z,-3.76
2019-01-11T02:02:43.982Z,-3.83
2019-01-11T02:03:44.214Z,-3.8
2019-01-11T02:04:43.940Z,-3.8
2019-01-11T02:05:44.161Z,-3.8
2019-01-11T02:06:44.146Z,-3.82
2019-01-11T02:07:43.873Z,-3.82
2019-01-11T02:08:44.102Z,-3.8
2019-01-11T02:09:43.834Z,-3.79
2019-01-11T02:10:44.060Z,-3.88
2019-01-11T02:11:44.033Z,-3.82
2019-01-11T02:12:44.015Z,-3.79
2019-01-11T02:13:43.993Z,-3.83
2019-01-11T02:14:43.986Z,-3.83
2019-01-11T02:15:43.949Z,-3.83
2019-01-11T02:16:43.926Z,-3.86
2019-01-11T02:17:43.913Z,-3.83
2019-01-11T02:18:43.900Z,-3.82
2019-01-11T02:19:43.874Z,-3.86
2019-01-11T02:20:43.840Z,-3.8
2019-01-11T02:21:43.570Z,-3.82
2019-01-11T02:22:43.802Z,-3.86
2019-01-11T02:23:43.781Z,-3.79
2019-01-11T02:24:43.507Z,-3.83
2019-01-11T02:25:48.655Z,-3.93
2019-01-11T02:26:43.716Z,-3.83
2019-01-11T02:27:43.689Z,-3.88
2019-01-11T02:28:43.428Z,-3.83
2019-01-11T02:29:43.653Z,-3.91
2019-01-11T02:30:43.634Z,-3.87
2019-01-11T02:31:43.619Z,-3.9
2019-01-11T02:32:43.589Z,-3.83
2019-01-11T02:33:43.569Z,-3.88
2019-01-11T02:34:43.545Z,-3.88
2019-01-11T02:35:43.524Z,-3.86
2019-01-11T02:36:43.503Z,-3.83
2019-01-11T02:37:43.483Z,-3.87
2019-01-11T02:38:43.458Z,-3.82
2019-01-11T02:39:43.439Z,-3.82
2019-01-11T02:40:43.419Z,-3.77
2019-01-11T02:41:43.400Z,-3.75
2019-01-11T02:42:43.377Z,-3.82
2019-01-11T02:43:43.355Z,-3.83
2019-01-11T02:44:43.343Z,-3.86
2019-01-11T02:45:43.064Z,-3.87
2019-01-11T02:46:43.045Z,-3.82
2019-01-11T02:47:43.263Z,-3.82
2019-01-11T02:48:43.245Z,-3.83
2019-01-11T02:49:45.196Z,-3.86
2019-01-11T02:50:43.205Z,-3.86
2019-01-11T02:51:42.963Z,-3.86
2019-01-11T02:52:42.918Z,-3.83
2019-01-11T02:53:42.898Z,-3.83
2019-01-11T02:54:43.115Z,-3.86
2019-01-11T02:55:43.095Z,-3.88
2019-01-11T02:56:43.086Z,-3.83
2019-01-11T02:57:43.056Z,-3.86
2019-01-11T02:58:43.031Z,-3.76
2019-01-11T02:59:43.015Z,-3.79
2019-01-11T03:00:42.990Z,-3.79
2019-01-11T03:01:42.970Z,-3.8
2019-01-11T03:02:42.946Z,-3.8
2019-01-11T03:03:42.926Z,-3.88
2019-01-11T03:04:42.899Z,-3.8
2019-01-11T03:05:42.891Z,-3.87
2019-01-11T03:06:42.864Z,-3.8
2019-01-11T03:07:42.601Z,-3.87
2019-01-11T03:08:42.815Z,-3.87
2019-01-11T03:09:42.802Z,-3.79
2019-01-11T03:10:42.786Z,-3.82
2019-01-11T03:11:42.774Z,-3.86
2019-01-11T03:12:42.741Z,-3.82
2019-01-11T03:13:42.712Z,-3.79
2019-01-11T03:14:42.689Z,-3.77
2019-01-11T03:15:42.680Z,-3.83
2019-01-11T03:16:42.654Z,-3.82
2019-01-11T03:17:42.630Z,-3.82
2019-01-11T03:18:42.355Z,-3.77
2019-01-11T03:19:50.107Z,-3.79
2019-01-11T03:20:42.562Z,-3.82
2019-01-11T03:21:42.047Z,-3.87
2019-01-11T03:22:42.523Z,-3.8
2019-01-11T03:23:42.499Z,-3.79
2019-01-11T03:24:42.480Z,-3.77
2019-01-11T03:25:42.483Z,-3.83
2019-01-11T03:26:42.463Z,-3.88
2019-01-11T03:27:42.419Z,-3.83
2019-01-11T03:28:42.387Z,-3.77
2019-01-11T03:29:42.369Z,-3.83
2019-01-11T03:30:42.357Z,-3.86
2019-01-11T03:31:42.342Z,-3.8
2019-01-11T03:32:42.314Z,-3.8
2019-01-11T03:33:42.033Z,-3.83
2019-01-11T03:34:42.262Z,-3.8
2019-01-11T03:35:42.248Z,-3.75
2019-01-11T03:36:41.975Z,-3.83
2019-01-11T03:37:41.698Z,-3.76
2019-01-11T03:38:42.191Z,-3.76
2019-01-11T03:39:42.149Z,-3.79
2019-01-11T03:40:42.130Z,-3.8
2019-01-11T03:41:42.125Z,-3.79
2019-01-11T03:42:42.094Z,-3.76
2019-01-11T03:43:42.068Z,-3.77
2019-01-11T03:44:41.802Z,-3.77
2019-01-11T03:45:41.780Z,-3.77
2019-01-11T03:46:42.030Z,-3.77
2019-01-11T03:47:41.979Z,-3.79
2019-01-11T03:48:41.715Z,-3.77
2019-01-11T03:49:42.191Z,-3.79
2019-01-11T03:50:41.920Z,-3.79
2019-01-11T03:51:41.901Z,-3.68
2019-01-11T03:52:41.886Z,-3.72
2019-01-11T03:53:41.853Z,-3.69
2019-01-11T03:54:41.838Z,-3.69
2019-01-11T03:55:41.815Z,-3.83
2019-01-11T03:56:41.797Z,-3.71
2019-01-11T03:57:41.771Z,-3.8
2019-01-11T03:58:41.767Z,-3.86
2019-01-11T03:59:41.732Z,-3.8
2019-01-11T04:00:41.732Z,-3.83
2019-01-11T04:01:41.686Z,-3.79
2019-01-11T04:02:41.665Z,-3.86
2019-01-11T04:03:41.644Z,-3.79
2019-01-11T04:04:41.368Z,-3.77
2019-01-11T04:05:41.694Z,-3.75
2019-01-11T04:06:41.573Z,-3.82
2019-01-11T04:07:41.547Z,-3.71
2019-01-11T04:08:41.528Z,-3.79
2019-01-11T04:09:41.507Z,-3.71
2019-01-11T04:10:41.490Z,-3.76
2019-01-11T04:11:41.466Z,-3.79
2019-01-11T04:12:41.443Z,-3.82
2019-01-11T04:13:41.178Z,-3.77
2019-01-11T04:14:41.162Z,-3.79
2019-01-11T04:15:41.385Z,-3.71
2019-01-11T04:16:41.364Z,-3.79
2019-01-11T04:17:41.353Z,-3.72
2019-01-11T04:18:41.347Z,-3.71
2019-01-11T04:19:41.299Z,-3.76
2019-01-11T04:20:41.331Z,-3.69
2019-01-11T04:21:41.258Z,-3.68
2019-01-11T04:22:40.981Z,-3.76
2019-01-11T04:23:41.218Z,-3.76
2019-01-11T04:24:41.197Z,-3.69
2019-01-11T04:25:41.165Z,-3.75
2019-01-11T04:26:41.146Z,-3.68
2019-01-11T04:27:41.121Z,-3.69
2019-01-11T04:28:41.115Z,-3.76
2019-01-11T04:29:41.087Z,-3.72
2019-01-11T04:30:41.073Z,-3.72
2019-01-11T04:31:41.042Z,-3.71
2019-01-11T04:32:41.032Z,-3.79
2019-01-11T04:33:40.998Z,-3.76
2019-01-11T04:34:40.977Z,-3.69
2019-01-11T04:35:40.954Z,-3.76
2019-01-11T04:36:40.938Z,-3.71
2019-01-11T04:37:40.913Z,-3.71
2019-01-11T04:38:40.897Z,-3.77
2019-01-11T04:39:40.890Z,-3.65
2019-01-11T04:40:40.870Z,-3.65
2019-01-11T04:41:40.823Z,-3.72
2019-01-11T04:42:40.804Z,-3.72
2019-01-11T04:43:40.789Z,-3.6
2019-01-11T04:44:40.523Z,-3.69
2019-01-11T04:45:40.746Z,-3.76
2019-01-11T04:46:40.718Z,-3.61
2019-01-11T04:47:40.472Z,-3.56
2019-01-11T04:48:40.678Z,-3.58
2019-01-11T04:49:40.655Z,-3.56
2019-01-11T04:50:40.648Z,-3.72
2019-01-11T04:51:40.612Z,-3.61
2019-01-11T04:52:40.592Z,-3.6
2019-01-11T04:53:40.581Z,-3.58
2019-01-11T04:54:40.547Z,-3.69
2019-01-11T04:55:40.531Z,-3.72
2019-01-11T04:56:40.513Z,-3.69
2019-01-11T04:57:40.486Z,-3.63
2019-01-11T04:58:40.457Z,-3.72
2019-01-11T04:59:40.441Z,-3.76
2019-01-11T05:00:40.422Z,-3.71
2019-01-11T05:01:40.410Z,-3.72
2019-01-11T05:02:40.374Z,-3.69
2019-01-11T05:03:40.356Z,-3.72
2019-01-11T05:04:40.337Z,-3.71
2019-01-11T05:05:40.311Z,-3.72
2019-01-11T05:06:40.285Z,-3.75
2019-01-11T05:07:40.264Z,-3.8
2019-01-11T05:08:40.251Z,-3.75
2019-01-11T05:09:40.222Z,-3.75
2019-01-11T05:10:40.197Z,-3.77
2019-01-11T05:11:40.178Z,-3.79
2019-01-11T05:12:40.162Z,-3.71
2019-01-11T05:13:40.135Z,-3.68
2019-01-11T05:14:40.122Z,-3.68
2019-01-11T05:15:40.142Z,-3.75
2019-01-11T05:16:44.290Z,-3.71
2019-01-11T05:17:40.069Z,-3.75
2019-01-11T05:18:39.538Z,-3.72
2019-01-11T05:19:39.759Z,-3.76
2019-01-11T05:20:39.753Z,-3.71
2019-01-11T05:21:39.962Z,-3.71
2019-01-11T05:22:39.944Z,-3.72
2019-01-11T05:23:39.936Z,-3.71
2019-01-11T05:24:39.651Z,-3.82
2019-01-11T05:25:39.889Z,-3.77
2019-01-11T05:26:39.865Z,-3.82
2019-01-11T05:27:39.833Z,-3.82
2019-01-11T05:28:39.815Z,-3.87
2019-01-11T05:29:39.795Z,-3.77
2019-01-11T05:30:39.770Z,-3.83
2019-01-11T05:31:39.755Z,-3.77
2019-01-11T05:32:39.732Z,-3.79
2019-01-11T05:33:39.705Z,-3.83
2019-01-11T05:34:39.688Z,-3.83
2019-01-11T05:35:39.672Z,-3.82
2019-01-11T05:36:39.649Z,-3.79
2019-01-11T05:37:40.164Z,-3.83
2019-01-11T05:38:39.604Z,-3.8
2019-01-11T05:39:39.591Z,-3.77
2019-01-11T05:40:39.309Z,-3.8
2019-01-11T05:41:39.535Z,-3.8
2019-01-11T05:42:39.263Z,-3.83
2019-01-11T05:43:39.490Z,-3.87
2019-01-11T05:44:39.468Z,-3.8
2019-01-11T05:45:39.450Z,-3.87
2019-01-11T05:46:39.430Z,-3.86
2019-01-11T05:47:39.406Z,-3.82
2019-01-11T05:48:39.386Z,-3.86
2019-01-11T05:49:39.379Z,-3.88
2019-01-11T05:50:39.336Z,-3.9
2019-01-11T05:51:39.070Z,-3.88
2019-01-11T05:52:39.301Z,-3.87
2019-01-11T05:53:39.028Z,-3.86
2019-01-11T05:54:39.273Z,-3.86
2019-01-11T05:55:39.241Z,-3.9
2019-01-11T05:56:39.210Z,-3.87
2019-01-11T05:57:39.189Z,-3.87
2019-01-11T05:58:39.169Z,-3.91
2019-01-11T05:59:39.147Z,-3.9
2019-01-11T06:00:39.127Z,-3.87
2019-01-11T06:01:39.106Z,-3.88
2019-01-11T06:02:39.082Z,-3.93
2019-01-11T06:03:39.062Z,-3.87
2019-01-11T06:04:39.046Z,-3.88
2019-01-11T06:05:39.029Z,-3.87
2019-01-11T06:06:38.998Z,-3.87
2019-01-11T06:07:38.983Z,-3.86
2019-01-11T06:08:38.958Z,-3.86
2019-01-11T06:09:38.977Z,-3.87
2019-01-11T06:10:38.913Z,-3.88
2019-01-11T06:11:38.887Z,-3.8
2019-01-11T06:12:38.870Z,-3.8
2019-01-11T06:13:38.846Z,-3.88
2019-01-11T06:14:38.823Z,-3.87
2019-01-11T06:15:38.801Z,-3.82
2019-01-11T06:16:38.782Z,-3.86
2019-01-11T06:17:38.756Z,-3.86
2019-01-11T06:18:38.740Z,-3.82
2019-01-11T06:19:38.715Z,-3.8
2019-01-11T06:20:38.696Z,-3.8
2019-01-11T06:21:38.674Z,-3.76
2019-01-11T06:22:38.653Z,-3.76
2019-01-11T06:23:38.640Z,-3.82
2019-01-11T06:24:38.608Z,-3.68
2019-01-11T06:25:38.596Z,-3.75
2019-01-11T06:26:38.571Z,-3.79
2019-01-11T06:27:38.542Z,-3.65
2019-01-11T06:28:38.526Z,-3.66
2019-01-11T06:29:38.504Z,-3.63
2019-01-11T06:30:38.474Z,-3.68
2019-01-11T06:31:38.358Z,-3.69
2019-01-11T06:32:38.439Z,-3.68
2019-01-11T06:33:38.423Z,-3.65
2019-01-11T06:34:38.410Z,-3.66
2019-01-11T06:35:38.372Z,-3.65
2019-01-11T06:36:38.351Z,-3.71
2019-01-11T06:37:38.334Z,-3.68
2019-01-11T06:38:38.308Z,-3.71
2019-01-11T06:39:38.037Z,-3.69
2019-01-11T06:40:38.017Z,-3.65
2019-01-11T06:41:38.245Z,-3.75
2019-01-11T06:42:38.263Z,-3.72
2019-01-11T06:43:38.201Z,-3.71
2019-01-11T06:44:43.790Z,-3.63
2019-01-11T06:45:38.194Z,-3.69
2019-01-11T06:46:38.131Z,-3.66
2019-01-11T06:47:39.039Z,-3.75
2019-01-11T06:48:38.092Z,-3.68
2019-01-11T06:49:38.072Z,-3.63
2019-01-11T06:50:41.391Z,-3.68
2019-01-11T06:51:38.029Z,-3.8
2019-01-11T06:52:38.051Z,-3.61
2019-01-11T06:53:37.989Z,-3.79
2019-01-11T06:54:37.959Z,-3.76
2019-01-11T06:55:37.943Z,-3.82
2019-01-11T06:56:37.924Z,-3.82
2019-01-11T06:57:37.651Z,-3.75
2019-01-11T06:58:37.885Z,-3.75
2019-01-11T06:59:37.862Z,-3.87
2019-01-11T07:00:37.837Z,-3.75
2019-01-11T07:01:37.814Z,-3.77
2019-01-11T07:02:37.807Z,-3.86
2019-01-11T07:03:37.768Z,-3.8
2019-01-11T07:04:37.747Z,-3.71
2019-01-11T07:05:37.477Z,-3.75
2019-01-11T07:06:37.704Z,-3.71
2019-01-11T07:07:37.685Z,-3.79
2019-01-11T07:08:37.664Z,-3.68
2019-01-11T07:09:37.780Z,-3.66
2019-01-11T07:10:37.622Z,-3.66
2019-01-11T07:11:37.597Z,-3.66
2019-01-11T07:12:37.582Z,-3.65
2019-01-11T07:13:37.555Z,-3.71
2019-01-11T07:14:37.547Z,-3.65
2019-01-11T07:15:37.513Z,-3.57
2019-01-11T07:16:37.490Z,-3.6
2019-01-11T07:17:37.471Z,-3.6
2019-01-11T07:18:37.449Z,-3.57
2019-01-11T07:19:37.428Z,-3.6
2019-01-11T07:20:42.834Z,-3.57
2019-01-11T07:21:37.386Z,-3.66
2019-01-11T07:22:37.363Z,-3.54
2019-01-11T07:23:37.345Z,-3.6
2019-01-11T07:24:37.325Z,-3.57
2019-01-11T07:25:37.300Z,-3.51
2019-01-11T07:26:37.280Z,-3.48
2019-01-11T07:27:37.256Z,-3.5
2019-01-11T07:28:37.238Z,-3.54
2019-01-11T07:29:37.209Z,-3.54
2019-01-11T07:30:36.940Z,-3.51
2019-01-11T07:31:37.169Z,-3.51
2019-01-11T07:32:36.898Z,-3.53
2019-01-11T07:33:37.124Z,-3.48
2019-01-11T07:34:36.609Z,-3.51
2019-01-11T07:35:36.833Z,-3.39
2019-01-11T07:36:37.064Z,-3.42
2019-01-11T07:37:37.040Z,-3.36
2019-01-11T07:38:36.772Z,-3.36
2019-01-11T07:39:37.000Z,-3.43
2019-01-11T07:40:36.976Z,-3.43
2019-01-11T07:41:36.458Z,-3.39
2019-01-11T07:42:36.933Z,-3.47
2019-01-11T07:43:36.913Z,-3.43
2019-01-11T07:44:36.924Z,-3.4
2019-01-11T07:45:36.869Z,-3.4
2019-01-11T07:46:36.598Z,-3.42
2019-01-11T07:47:36.835Z,-3.43
2019-01-11T07:48:36.819Z,-3.42
2019-01-11T07:49:36.780Z,-3.43
2019-01-11T07:50:36.520Z,-3.39
2019-01-11T07:51:36.741Z,-3.33
2019-01-11T07:52:36.471Z,-3.36
2019-01-11T07:53:36.699Z,-3.32
2019-01-11T07:54:36.680Z,-3.35
2019-01-11T07:55:36.408Z,-3.3
2019-01-11T07:56:36.634Z,-3.32
2019-01-11T07:57:36.630Z,-3.25
2019-01-11T07:58:36.594Z,-3.29
2019-01-11T07:59:36.573Z,-3.3
2019-01-11T08:00:36.547Z,-3.25
2019-01-11T08:01:36.541Z,-3.19
2019-01-11T08:02:36.506Z,-3.32
2019-01-11T08:03:36.487Z,-3.17
2019-01-11T08:04:36.465Z,-3.24
2019-01-11T08:05:36.441Z,-3.24
2019-01-11T08:06:36.177Z,-3.15
2019-01-11T08:07:36.407Z,-3.17
2019-01-11T08:08:36.394Z,-3.14
2019-01-11T08:09:36.110Z,-3.19
2019-01-11T08:10:36.340Z,-3.19
2019-01-11T08:11:36.314Z,-3.15
2019-01-11T08:12:36.295Z,-3.18
2019-01-11T08:13:36.273Z,-3.14
2019-01-11T08:14:36.252Z,-3.14
2019-01-11T08:15:36.231Z,-3.12
2019-01-11T08:16:36.211Z,-3.06
2019-01-11T08:17:36.337Z,-3.07
2019-01-11T08:18:36.227Z,-3.06
2019-01-11T08:19:36.151Z,-2.94
2019-01-11T08:20:35.875Z,-2.9
2019-01-11T08:21:36.106Z,-2.86
2019-01-11T08:22:36.083Z,-2.85
2019-01-11T08:23:36.065Z,-2.81
2019-01-11T08:24:36.034Z,-2.76
2019-01-11T08:25:36.016Z,-2.78
2019-01-11T08:26:35.996Z,-2.81
2019-01-11T08:27:35.731Z,-2.75
2019-01-11T08:28:35.962Z,-2.75
2019-01-11T08:29:35.937Z,-2.81
2019-01-11T08:30:35.911Z,-2.73
2019-01-11T08:31:39.569Z,-2.75
2019-01-11T08:32:35.874Z,-2.76
2019-01-11T08:33:35.850Z,-2.76
2019-01-11T08:34:35.840Z,-2.76
2019-01-11T08:35:35.807Z,-2.72
2019-01-11T08:36:35.794Z,-2.67
2019-01-11T08:37:35.768Z,-2.65
2019-01-11T08:38:35.788Z,-2.65
2019-01-11T08:39:37.365Z,-2.57
2019-01-11T08:40:35.708Z,-2.61
2019-01-11T08:41:35.437Z,-2.65
2019-01-11T08:42:35.411Z,-2.62
2019-01-11T08:43:35.641Z,-2.58
2019-01-11T08:44:35.621Z,-2.55
2019-01-11T08:45:35.596Z,-2.64
2019-01-11T08:46:35.331Z,-2.67
2019-01-11T08:47:35.555Z,-2.54
2019-01-11T08:48:35.538Z,-2.54
2019-01-11T08:49:35.519Z,-2.47
2019-01-11T08:50:35.495Z,-2.42
2019-01-11T08:51:35.474Z,-2.49
2019-01-11T08:52:35.201Z,-2.47
2019-01-11T08:53:35.428Z,-2.5
2019-01-11T08:54:35.415Z,-2.42
2019-01-11T08:55:35.393Z,-2.54
2019-01-11T08:56:35.368Z,-2.46
2019-01-11T08:57:35.354Z,-2.49
2019-01-11T08:58:35.077Z,-2.44
2019-01-11T08:59:35.307Z,-2.57
2019-01-11T09:00:35.285Z,-2.55
2019-01-11T09:01:35.264Z,-2.64
2019-01-11T09:02:35.242Z,-2.68
2019-01-11T09:03:35.239Z,-2.47
2019-01-11T09:04:34.955Z,-2.5
2019-01-11T09:05:35.179Z,-2.47
2019-01-11T09:06:35.160Z,-2.46
2019-01-11T09:07:34.895Z,-2.43
2019-01-11T09:08:35.125Z,-2.47
2019-01-11T09:09:35.098Z,-2.49
2019-01-11T09:10:35.078Z,-2.47
2019-01-11T09:11:34.812Z,-2.39
2019-01-11T09:12:35.037Z,-2.46
2019-01-11T09:13:35.015Z,-2.36
2019-01-11T09:14:34.995Z,-2.37
2019-01-11T09:15:34.971Z,-2.25
2019-01-11T09:16:34.951Z,-2.46
2019-01-11T09:17:34.932Z,-2.37
2019-01-11T09:18:34.928Z,-2.32
2019-01-11T09:19:34.891Z,-2.37
2019-01-11T09:20:34.871Z,-2.43
2019-01-11T09:21:34.849Z,-2.34
2019-01-11T09:22:34.832Z,-2.23
2019-01-11T09:23:34.570Z,-2.25
2019-01-11T09:24:34.787Z,-2.14
2019-01-11T09:25:34.861Z,-2.18
2019-01-11T09:26:34.745Z,-2.18
2019-01-11T09:27:34.726Z,-2.09
2019-01-11T09:28:34.712Z,-2.15
2019-01-11T09:29:34.687Z,-2.14
2019-01-11T09:30:34.675Z,-2.15
2019-01-11T09:31:34.641Z,-2.07
2019-01-11T09:32:34.376Z,-2.2
2019-01-11T09:33:34.604Z,-2.17
2019-01-11T09:34:34.332Z,-2.15
2019-01-11T09:35:34.568Z,-2.2
2019-01-11T09:36:34.542Z,-2.17
2019-01-11T09:37:34.524Z,-2.24
2019-01-11T09:38:34.508Z,-2.15
2019-01-11T09:39:34.479Z,-2.07
2019-01-11T09:40:34.465Z,-2.14
2019-01-11T09:41:34.452Z,-2.09
2019-01-11T09:42:34.426Z,-2.2
2019-01-11T09:43:34.398Z,-2.17
2019-01-11T09:44:34.382Z,-2.15
2019-01-11T09:45:34.355Z,-2.05
2019-01-11T09:46:34.337Z,-2.02
2019-01-11T09:47:34.319Z,-1.91
2019-01-11T09:48:34.337Z,-1.88
2019-01-11T09:49:34.878Z,-1.96
2019-01-11T09:50:34.005Z,-1.89
2019-01-11T09:51:34.236Z,-1.88
2019-01-11T09:52:33.971Z,-1.86
2019-01-11T09:53:34.193Z,-1.85
2019-01-11T09:54:33.928Z,-1.78
2019-01-11T09:55:33.909Z,-1.81
2019-01-11T09:56:34.134Z,-1.85
2019-01-11T09:57:33.872Z,-1.79
2019-01-11T09:58:34.090Z,-1.84
2019-01-11T09:59:39.769Z,-1.85
2019-01-11T10:00:34.050Z,-1.97
2019-01-11T10:01:34.035Z,-2.02
2019-01-11T10:02:34.231Z,-1.89
2019-01-11T10:03:33.986Z,-1.91
2019-01-11T10:04:33.976Z,-1.89
2019-01-11T10:05:33.945Z,-1.99
2019-01-11T10:06:33.687Z,-2.02
2019-01-11T10:07:33.908Z,-1.96
2019-01-11T10:08:33.898Z,-1.91
2019-01-11T10:09:33.869Z,-1.97
2019-01-11T10:10:33.850Z,-1.99
2019-01-11T10:11:33.580Z,-1.97
2019-01-11T10:12:33.810Z,-1.96
2019-01-11T10:13:33.787Z,-1.96
2019-01-11T10:14:33.772Z,-2
2019-01-11T10:15:33.752Z,-2.06
2019-01-11T10:16:33.725Z,-1.92
2019-01-11T10:17:33.460Z,-1.97
2019-01-11T10:18:33.688Z,-1.96
2019-01-11T10:19:33.418Z,-2
2019-01-11T10:20:33.645Z,-1.85
2019-01-11T10:21:33.378Z,-1.86
2019-01-11T10:22:33.601Z,-1.88
2019-01-11T10:23:33.582Z,-1.82
2019-01-11T10:24:33.564Z,-1.67
2019-01-11T10:25:33.541Z,-1.71
2019-01-11T10:26:33.523Z,-1.53
2019-01-11T10:27:33.509Z,-1.64
2019-01-11T10:28:33.480Z,-1.5
2019-01-11T10:29:33.467Z,-1.56
2019-01-11T10:30:33.239Z,-1.46
2019-01-11T10:31:33.421Z,-1.6
2019-01-11T10:32:32.908Z,-1.56
2019-01-11T10:33:38.450Z,-1.6
2019-01-11T10:34:33.359Z,-1.53
2019-01-11T10:35:33.343Z,-1.58
2019-01-11T10:36:33.323Z,-1.49
2019-01-11T10:37:33.377Z,-1.46
2019-01-11T10:38:33.282Z,-1.56
2019-01-11T10:39:33.263Z,-1.55
2019-01-11T10:40:33.235Z,-1.58
2019-01-11T10:41:32.970Z,-1.5
2019-01-11T10:42:33.198Z,-1.5
2019-01-11T10:43:33.173Z,-1.56
2019-01-11T10:44:33.165Z,-1.52
2019-01-11T10:45:33.139Z,-1.46
2019-01-11T10:46:33.126Z,-1.52
2019-01-11T10:47:33.105Z,-1.49
2019-01-11T10:48:32.834Z,-1.52
2019-01-11T10:49:33.059Z,-1.5
2019-01-11T10:50:33.038Z,-1.5
2019-01-11T10:51:33.057Z,-1.35
2019-01-11T10:52:33.004Z,-1.42
2019-01-11T10:53:32.978Z,-1.4
2019-01-11T10:54:32.955Z,-1.43
2019-01-11T10:55:32.939Z,-1.37
2019-01-11T10:56:32.917Z,-1.34
2019-01-11T10:57:32.898Z,-1.35
2019-01-11T10:58:32.879Z,-1.25
2019-01-11T10:59:32.857Z,-1.3
2019-01-11T11:00:32.838Z,-1.19
2019-01-11T11:01:32.818Z,-1.21
2019-01-11T11:02:32.801Z,-1.22
2019-01-11T11:03:32.778Z,-1.16
2019-01-11T11:04:32.759Z,-1.19
2019-01-11T11:05:32.740Z,-1.21
2019-01-11T11:06:32.472Z,-1.11
2019-01-11T11:07:32.704Z,-1.11
2019-01-11T11:08:32.679Z,-1.16
2019-01-11T11:09:32.663Z,-1.13
2019-01-11T11:10:32.394Z,-1.19
2019-01-11T11:11:32.641Z,-1.22
2019-01-11T11:12:32.600Z,-1.21
2019-01-11T11:13:32.611Z,-1.3
2019-01-11T11:14:32.320Z,-1.31
2019-01-11T11:15:32.539Z,-1.28
2019-01-11T11:16:35.389Z,-1.28
2019-01-11T11:17:32.504Z,-1.27
2019-01-11T11:18:32.875Z,-1.22
2019-01-11T11:19:32.609Z,-1.19
2019-01-11T11:20:32.440Z,-1.19
2019-01-11T11:21:37.138Z,-1.24
2019-01-11T11:22:32.407Z,-1.25
2019-01-11T11:23:32.389Z,-1.25
2019-01-11T11:24:32.365Z,-1.13
2019-01-11T11:25:32.598Z,-1.13
2019-01-11T11:26:32.326Z,-1.01
2019-01-11T11:27:32.311Z,-0.96
2019-01-11T11:28:32.286Z,-0.91
2019-01-11T11:29:32.263Z,-1.01
2019-01-11T11:30:32.248Z,-1.04
2019-01-11T11:31:31.723Z,-1.03
2019-01-11T11:32:32.212Z,-1.09
2019-01-11T11:33:32.185Z,-1.11
2019-01-11T11:34:32.170Z,-1.1
2019-01-11T11:35:32.156Z,-1.21
2019-01-11T11:36:32.408Z,-1.17
2019-01-11T11:37:32.112Z,-1.25
2019-01-11T11:38:32.092Z,-1.17
2019-01-11T11:39:32.066Z,-1.3
2019-01-11T11:40:32.057Z,-1.3
2019-01-11T11:41:31.779Z,-1.19
2019-01-11T11:42:32.013Z,-1.22
2019-01-11T11:43:31.740Z,-1.25
2019-01-11T11:44:31.975Z,-1.28
2019-01-11T11:45:31.952Z,-1.3
2019-01-11T11:46:31.926Z,-1.25
2019-01-11T11:47:31.916Z,-1.28
2019-01-11T11:48:31.893Z,-1.24
2019-01-11T11:49:31.871Z,-1.22
2019-01-11T11:50:31.606Z,-1.19
2019-01-11T11:51:31.329Z,-1.13
2019-01-11T11:52:31.565Z,-1.19
2019-01-11T11:53:31.812Z,-1.22
2019-01-11T11:54:31.525Z,-1.22
2019-01-11T11:55:31.754Z,-1.09
2019-01-11T11:56:31.731Z,-1.07
2019-01-11T11:57:31.714Z,-1.03
2019-01-11T11:58:31.698Z,-1.1
2019-01-11T11:59:31.675Z,-1.03
2019-01-11T12:00:31.660Z,-1.04
2019-01-11T12:01:31.390Z,-0.99
2019-01-11T12:02:31.617Z,-1.03
2019-01-11T12:03:31.599Z,-1.04
2019-01-11T12:04:31.574Z,-1.04
2019-01-11T12:05:31.564Z,-1.01
2019-01-11T12:06:31.535Z,-1.07
2019-01-11T12:07:31.270Z,-1.04
2019-01-11T12:08:31.498Z,-1.04
2019-01-11T12:09:31.477Z,-1.04
2019-01-11T12:10:31.458Z,-0.99
2019-01-11T12:11:31.443Z,-0.96
2019-01-11T12:12:31.587Z,-0.96
2019-01-11T12:13:34.416Z,-1.01
2019-01-11T12:14:31.136Z,-1.09
2019-01-11T12:15:31.210Z,-1.04
2019-01-11T12:16:31.346Z,-1.07
2019-01-11T12:17:31.322Z,-1.04
2019-01-11T12:18:31.300Z,-1.01
2019-01-11T12:19:31.282Z,-0.95
2019-01-11T12:20:31.277Z,-0.96
2019-01-11T12:21:31.247Z,-0.91
2019-01-11T12:22:31.229Z,-0.85
2019-01-11T12:23:30.961Z,-0.85
2019-01-11T12:24:31.187Z,-0.8
2019-01-11T12:25:31.170Z,-0.79
2019-01-11T12:26:31.148Z,-0.85
2019-01-11T12:27:31.130Z,-0.82
2019-01-11T12:28:31.114Z,-0.82
2019-01-11T12:29:31.088Z,-0.85
2019-01-11T12:30:31.065Z,-0.91
2019-01-11T12:31:31.060Z,-0.96
2019-01-11T12:32:31.027Z,-0.93
2019-01-11T12:33:31.021Z,-1.01
2019-01-11T12:34:30.990Z,-0.93
2019-01-11T12:35:30.999Z,-0.85
2019-01-11T12:36:30.950Z,-0.91
2019-01-11T12:37:30.681Z,-0.84
2019-01-11T12:38:30.912Z,-0.89
2019-01-11T12:39:30.896Z,-0.85
2019-01-11T12:40:30.923Z,-0.84
2019-01-11T12:41:30.856Z,-0.85
2019-01-11T12:42:30.827Z,-0.74
2019-01-11T12:43:30.812Z,-0.67
2019-01-11T12:44:30.791Z,-0.66
2019-01-11T12:45:30.773Z,-0.79
2019-01-11T12:46:30.762Z,-0.64
2019-01-11T12:47:30.735Z,-0.73
2019-01-11T12:48:30.715Z,-0.82
2019-01-11T12:49:31.153Z,-0.82
2019-01-11T12:50:30.980Z,-0.82
2019-01-11T12:51:30.660Z,-0.87
2019-01-11T12:52:30.631Z,-0.85
2019-01-11T12:53:30.639Z,-0.82
2019-01-11T12:54:30.597Z,-0.77
2019-01-11T12:55:30.344Z,-0.77